Domov               UVHVVR             MKGP            O straneh              
ZDRAVSTVENO VARSTVO RASTLIN
  MREŽA AGROMET. POSTAJ
 ► PROGNOSTIČNA OBVESTILA
AGROMETEOROLOŠKI PODATKI -
ARSO
OBVLADOVANJE TVEGANJ ZARADI
NEUGODNIH VREMENSKIH RAZMER
  ► NARAVNE NESREČE
  ► SUŠA/MOČA
  ► NAMAKANJE
  ► ŽLED (gozdarstvo)
KARTOGRAFSKI PRIKAZI
SPLETNE POVEZAVE
PROJEKTI IN PUBLIKACIJE

AGROMETEOROLOŠKA MREŽA: VREMENSKE POSTAJE IN FENOLOŠKA OPAZOVANJA

Pregled podatkov za lokacijo Kostanjevica na Krki, meteorološka postaja 855712

Pregled senzorjev na lokaciji

ID Ime Zadnja
vrednost
Datum
zadnje
spremembe
Tip
senzorja
3850 Temperatura 2 m ( °C) 24,04 °C 21.8.2017 15:30 50YA
3851 Relativna vlaga 2 m (% RH) 44 % RH 21.8.2017 15:30 50YA
3852 Omočenost lista (U) 0 U 21.8.2017 15:30 A730WET
3853 Padavine 0.2 mm (mm) 0 mm 21.8.2017 15:30 Rain-O-Matic

Pregled podatkov zadnjih 24 ur

Zap.
št.
Datum in čas Kostanjevica na Krki
Omočenost
lista
Padavine
0.2
mm
Relativna
vlaga
2
m
Temperatura
2
m
0 21.8.2017 14:30 0 0 44 24,04
1 21.8.2017 14:00 0 0 44,75 23,66
2 21.8.2017 13:30 0 0 46,1 23,74
3 21.8.2017 13:00 0 0 44,73 23,69
4 21.8.2017 12:30 0 0 46,82 23,26
5 21.8.2017 12:00 0 0 45,96 23,01
6 21.8.2017 11:30 0 0 49,56 22,85
7 21.8.2017 11:00 0 0 51,68 22,27
8 21.8.2017 10:30 0 0 48,79 21,58
9 21.8.2017 10:00 0 0 53,49 21,48
10 21.8.2017 09:30 0 0 58 21,1
11 21.8.2017 09:00 0 0 64,99 19,4
12 21.8.2017 08:30 7 0 71 17,82
13 21.8.2017 08:00 10 0 80,68 15,91
14 21.8.2017 07:30 10 0 86,8 14,39
15 21.8.2017 07:00 10 0 99,78 12,05
16 21.8.2017 06:30 9 0 100 11,05
17 21.8.2017 06:00 9 0 100 9,7
18 21.8.2017 05:30 9 0 100 9,19
19 21.8.2017 05:00 9 0 100 9,16
20 21.8.2017 04:30 9 0 100 9,35
21 21.8.2017 04:00 8 0 100 9,58
22 21.8.2017 03:30 8 0 100 10,01
23 21.8.2017 03:00 9 0 100 10,18
24 21.8.2017 02:30 9 0 100 10,65
25 21.8.2017 02:00 7 0 100 10,58
26 21.8.2017 01:30 6 0 100 11,09
27 21.8.2017 01:00 4 0 100 11,5
28 21.8.2017 00:30 3 0 98,9 11,74
29 21.8.2017 00:00 3 0 93,43 12,7
30 20.8.2017 23:30 2 0 93,89 12,72
31 20.8.2017 23:00 2 0 91,87 13,48
32 20.8.2017 22:30 2 0 87,07 14,22
33 20.8.2017 22:00 1 0 92,29 13,59
34 20.8.2017 21:30 1 0 86,62 14,38
35 20.8.2017 21:00 1 0 85,36 14,84
36 20.8.2017 20:30 1 0 82 15,56
37 20.8.2017 20:00 1 0 90,3 15,66
38 20.8.2017 19:30 0 0 86,06 16,71
39 20.8.2017 19:00 0 0 82,29 17,71
40 20.8.2017 18:30 0 0 73,24 19,25
41 20.8.2017 18:00 0 0 65,62 20,87
42 20.8.2017 17:30 0 0 58,4 22,01
43 20.8.2017 17:00 0 0 58,7 22,31
44 20.8.2017 16:30 0 0 57,43 22,2
45 20.8.2017 16:00 0 0 58,31 22,56
© 2011 Ministrstvo za kmetijstvo, gozdarstvo in prehrano. Vse pravice pridržane.